Felker Army Air Field
KFAF : now visible

Aeroporto :











RITROVATECI SU...

 
LOGIN :

Iscrizione | Disclaimer

   EN    FR    IT 

 









Sommario :    VFR   VFR Marginale   IFR   IFR Intensivo   IFR Molto Intensivo
Visibilità : 
Base nubi : 
>= 8 km
>= 3000ft
5 / 8 km
1000 / 3000 ft
1500m / 5 km
500 / 1000 ft
800 / 1500m
200 / 500 ft
< 800m
< 200 ft
Simboli :   Temporali  Nebbia  Neve Forte  Precipitazioni Forti  Vento > 20 kt






- Altitudine del aeroporto : 12 ft


KFAF - Felker Army Air Field

ULTIMO METAR :
  • 250640Z AUTO 19003KT 10SM -DZ OVC006 09/07 A2993 RMK AO2 DZB40 SLP138 $

METARs OBSOLETI :
  • 250556Z AUTO 17005KT 10SM OVC006 09/07 A2992 RMK AO2 DZB01E04RAB04E29DZB41E42RAB42E54DZB54E55 SLP135 P0001 60005 T00850073 10094 20085 57020 $
  • 250539Z AUTO 18004KT 10SM OVC007 09/07 A2993 RMK AO2 DZB01E04RAB04E29 SLP139 $
  • 250501Z AUTO 17004KT 10SM -DZ FEW040 09/07 A2994 RMK AO2 DZB01 SLP142 $
  • 250456Z AUTO 18003KT 10SM CLR 09/07 A2994 RMK AO2 RAE35 SLP142 P0002 T00870073 401250031 $
  • 250435Z AUTO 19004KT 10SM CLR 09/07 A2995 RMK AO2 RAE35 SLP145 $
  • 250356Z AUTO 19004KT 10SM -RA FEW024 OVC033 09/07 A2996 RMK AO2 DZB24E35RAB35 SLP149 P0001 T00900073 $

TAF TAF KFAF
Valido dal 24 a 19 ore il 26 a 01 ore UTC


241900Z 2419/2601 21009KT 9000 -DZ BKN045 OVC120 QNH3002INS
BECMG 2503/2504 VRB06KT 8000 -SHRA OVC025 QNH2998INS
BECMG 2505/2506 17006KT 6000 -SHRA OVC003 QNH2995INS
BECMG 2518/2519 VRB06KT 9000 BR OVC004 QNH2976INS TX15/2521Z TN08/2507Z LAST NO AMDS AFT 2504 NEXT 2511



MetMap, La meteo Aeronautica in un colpo d'occhio ! - Copyright ORBIFLY Dicembre 2007 - Disclaimer

ORBIFLY MET'MAP TEAM :

Programmazione e sviluppo : Alexandra Zaïnal
Concezione : Baudouin d'Aumeries
Aiuto per la programmazione : Marc-Olivier Méhu
Supporto tecnico e logistico : Manuel Goepfert
Aiuto per la traduzione : Arnaldo La Scala

Contatto : metmap@orbifly.com




FONTI E CREDITI :

   NOAA       Earth
Advisory